createdAt,value
2022-11-27T00:01:36.049Z,4.25
2022-11-27T00:04:03.195Z,4.25
2022-11-27T00:06:30.931Z,4.25
2022-11-27T00:08:59.559Z,4.23
2022-11-27T00:11:28.257Z,4.25
2022-11-27T00:13:55.708Z,4.25
2022-11-27T00:16:23.688Z,4.17
2022-11-27T00:18:50.841Z,4.17
2022-11-27T00:21:22.820Z,4.18
2022-11-27T00:23:50.474Z,4.18
2022-11-27T00:26:17.502Z,4.18
2022-11-27T00:28:44.414Z,4.17
2022-11-27T00:31:17.700Z,4.17
2022-11-27T00:33:44.894Z,4.17
2022-11-27T00:36:12.659Z,4.16
2022-11-27T00:38:39.879Z,4.15
2022-11-27T00:41:20.622Z,4.14
2022-11-27T00:43:48.246Z,4.14
2022-11-27T00:46:24.038Z,4.14
2022-11-27T00:48:55.522Z,4.12
2022-11-27T00:51:23.193Z,4.06
2022-11-27T00:53:50.594Z,4.09
2022-11-27T00:56:19.690Z,4.06
2022-11-27T00:58:47.208Z,4.06
2022-11-27T01:01:17.888Z,4.01
2022-11-27T01:03:45.729Z,4.00
2022-11-27T01:06:13.140Z,3.98
2022-11-27T01:08:40.420Z,3.98
2022-11-27T01:11:07.337Z,4.01
2022-11-27T01:13:37.833Z,4.05
2022-11-27T01:16:10.517Z,4.02
2022-11-27T01:18:39.409Z,4.02
2022-11-27T01:21:06.488Z,4.06
2022-11-27T01:23:33.404Z,4.07
2022-11-27T01:26:04.665Z,4.10
2022-11-27T01:28:32.689Z,4.11
2022-11-27T01:31:03.701Z,4.12
2022-11-27T01:33:30.620Z,4.14
2022-11-27T01:36:00.109Z,4.15
2022-11-27T01:38:27.625Z,4.16
2022-11-27T01:41:02.942Z,4.18
2022-11-27T01:43:49.679Z,4.15
2022-11-27T01:46:32.366Z,4.18
2022-11-27T01:49:09.268Z,4.16
2022-11-27T01:52:00.952Z,4.13
2022-11-27T01:54:33.884Z,4.11
2022-11-27T01:57:05.283Z,4.12
2022-11-27T01:59:32.467Z,4.13
2022-11-27T02:02:00.063Z,4.14
2022-11-27T02:04:26.994Z,4.12
2022-11-27T02:06:55.396Z,4.01
2022-11-27T02:09:22.410Z,4.10
2022-11-27T02:12:07.755Z,4.12
2022-11-27T02:14:45.346Z,4.13
2022-11-27T02:17:45.017Z,4.11
2022-11-27T02:20:36.221Z,4.07
2022-11-27T02:23:27.660Z,4.07
2022-11-27T02:26:48.340Z,4.07
2022-11-27T02:29:18.983Z,4.06
2022-11-27T02:32:02.878Z,4.06
2022-11-27T02:34:51.222Z,4.03
2022-11-27T02:37:39.561Z,4.08
2022-11-27T02:40:21.390Z,4.10
2022-11-27T02:42:59.596Z,4.17
2022-11-27T02:45:39.411Z,4.24
2022-11-27T02:48:07.206Z,4.28
2022-11-27T02:50:36.377Z,4.33
2022-11-27T02:53:06.831Z,4.37
2022-11-27T02:55:34.891Z,4.40
2022-11-27T02:58:04.174Z,4.38
2022-11-27T03:00:31.266Z,4.46
2022-11-27T03:03:01.545Z,4.48
2022-11-27T03:05:31.466Z,4.51
2022-11-27T03:08:11.486Z,4.50
2022-11-27T03:10:59.381Z,4.52
2022-11-27T03:13:26.287Z,4.52
2022-11-27T03:16:12.527Z,4.52
2022-11-27T03:18:44.494Z,4.59
2022-11-27T03:21:27.268Z,4.63
2022-11-27T03:23:54.274Z,4.68
2022-11-27T03:26:21.120Z,4.71
2022-11-27T03:28:49.080Z,4.72
2022-11-27T03:31:16.775Z,4.66
2022-11-27T03:33:44.047Z,4.67
2022-11-27T03:36:15.352Z,4.69
2022-11-27T03:38:43.109Z,4.72
2022-11-27T03:41:21.462Z,4.68
2022-11-27T03:44:20.093Z,4.75
2022-11-27T03:47:14.583Z,4.76
2022-11-27T03:50:08.927Z,4.77
2022-11-27T03:52:48.002Z,4.76
2022-11-27T03:55:21.168Z,4.77
2022-11-27T03:58:00.203Z,4.78
2022-11-27T04:00:30.525Z,4.79
2022-11-27T04:02:57.347Z,4.77
2022-11-27T04:05:24.155Z,4.79
2022-11-27T04:07:51.014Z,4.79
2022-11-27T04:10:18.082Z,4.77
2022-11-27T04:12:44.909Z,4.81
2022-11-27T04:15:12.035Z,4.81
2022-11-27T04:17:39.208Z,4.82
2022-11-27T04:20:07.422Z,4.83
2022-11-27T04:22:34.451Z,4.82
2022-11-27T04:25:01.315Z,4.82
2022-11-27T04:27:28.106Z,4.83
2022-11-27T04:29:55.004Z,4.84
2022-11-27T04:32:21.830Z,4.83
2022-11-27T04:34:48.687Z,4.83
2022-11-27T04:37:15.591Z,4.85
2022-11-27T04:39:42.874Z,4.87
2022-11-27T04:42:09.799Z,4.88
2022-11-27T04:44:36.733Z,4.88
2022-11-27T04:47:03.705Z,4.91
2022-11-27T04:49:30.840Z,4.91
2022-11-27T04:51:57.635Z,4.91
2022-11-27T04:54:24.515Z,4.92
2022-11-27T04:56:51.339Z,4.94
2022-11-27T04:59:18.225Z,4.96
2022-11-27T05:01:45.036Z,4.96
2022-11-27T05:04:11.898Z,4.96
2022-11-27T05:06:38.744Z,4.95
2022-11-27T05:09:05.578Z,4.94
2022-11-27T05:11:32.779Z,4.92
2022-11-27T05:14:18.431Z,4.90
2022-11-27T05:16:49.678Z,4.91
2022-11-27T05:19:18.305Z,4.92
2022-11-27T05:21:46.110Z,4.93
2022-11-27T05:24:14.087Z,4.93
2022-11-27T05:26:41.574Z,4.93
2022-11-27T05:29:09.778Z,4.92
2022-11-27T05:31:37.339Z,4.91
2022-11-27T05:34:04.459Z,4.91
2022-11-27T05:36:31.756Z,4.90
2022-11-27T05:38:59.741Z,4.94
2022-11-27T05:41:26.525Z,4.95
2022-11-27T05:43:53.343Z,4.96
2022-11-27T05:46:22.063Z,4.96
2022-11-27T05:48:49.408Z,4.95
2022-11-27T05:51:16.990Z,4.96
2022-11-27T05:53:43.845Z,4.97
2022-11-27T05:56:16.289Z,4.96
2022-11-27T05:58:45.101Z,4.99
2022-11-27T06:01:13.107Z,4.98
2022-11-27T06:03:41.122Z,5.00
2022-11-27T06:06:13.859Z,4.98
2022-11-27T06:08:41.151Z,4.91
2022-11-27T06:11:13.121Z,4.94
2022-11-27T06:13:40.441Z,4.95
2022-11-27T06:16:16.817Z,4.95
2022-11-27T06:18:44.777Z,4.97
2022-11-27T06:21:16.455Z,4.98
2022-11-27T06:23:44.486Z,4.96
2022-11-27T06:26:19.937Z,4.96
2022-11-27T06:28:47.768Z,4.95
2022-11-27T06:31:18.312Z,4.94
2022-11-27T06:33:46.947Z,4.98
2022-11-27T06:36:13.855Z,4.99
2022-11-27T06:38:41.104Z,4.99
2022-11-27T06:41:16.939Z,4.95
2022-11-27T06:43:44.017Z,4.86
2022-11-27T06:46:16.438Z,4.96
2022-11-27T06:48:44.959Z,4.87
2022-11-27T06:51:14.553Z,4.92
2022-11-27T06:53:42.023Z,4.95
2022-11-27T06:56:21.971Z,4.91
2022-11-27T06:58:53.526Z,4.90
2022-11-27T07:01:21.244Z,4.90
2022-11-27T07:03:48.348Z,4.97
2022-11-27T07:06:18.823Z,5.00
2022-11-27T07:08:45.907Z,4.94
2022-11-27T07:11:21.012Z,4.91
2022-11-27T07:13:49.086Z,4.95
2022-11-27T07:16:17.284Z,4.86
2022-11-27T07:18:47.218Z,4.92
2022-11-27T07:21:14.371Z,4.93
2022-11-27T07:23:41.622Z,4.99
2022-11-27T07:26:10.802Z,5.04
2022-11-27T07:28:37.937Z,4.99
2022-11-27T07:31:05.752Z,4.94
2022-11-27T07:33:32.627Z,4.96
2022-11-27T07:36:04.991Z,4.84
2022-11-27T07:38:32.400Z,4.92
2022-11-27T07:41:01.236Z,4.99
2022-11-27T07:43:28.800Z,5.06
2022-11-27T07:45:56.104Z,5.10
2022-11-27T07:48:23.035Z,5.14
2022-11-27T07:50:50.048Z,5.17
2022-11-27T07:53:17.332Z,5.20
2022-11-27T07:55:44.318Z,5.24
2022-11-27T07:58:11.359Z,5.28
2022-11-27T08:00:38.989Z,5.30
2022-11-27T08:03:05.853Z,5.33
2022-11-27T08:05:36.590Z,5.35
2022-11-27T08:08:04.463Z,5.38
2022-11-27T08:10:34.873Z,5.42
2022-11-27T08:13:01.757Z,5.42
2022-11-27T08:15:28.560Z,5.36
2022-11-27T08:17:55.350Z,5.25
2022-11-27T08:20:22.528Z,5.15
2022-11-27T08:22:49.567Z,5.09
2022-11-27T08:25:16.731Z,5.25
2022-11-27T08:27:43.792Z,5.41
2022-11-27T08:30:11.029Z,5.52
2022-11-27T08:32:40.120Z,5.58
2022-11-27T08:35:07.714Z,5.68
2022-11-27T08:37:34.898Z,5.73
2022-11-27T08:40:02.335Z,5.73
2022-11-27T08:42:30.152Z,5.72
2022-11-27T08:44:58.259Z,5.79
2022-11-27T08:47:25.189Z,5.82
2022-11-27T08:49:55.311Z,5.89
2022-11-27T08:52:22.766Z,5.85
2022-11-27T08:54:54.472Z,5.85
2022-11-27T08:57:24.113Z,5.94
2022-11-27T08:59:51.224Z,5.80
2022-11-27T09:02:18.107Z,5.84
2022-11-27T09:04:45.196Z,5.88
2022-11-27T09:07:15.396Z,5.76
2022-11-27T09:09:42.433Z,5.74
2022-11-27T09:12:09.675Z,5.62
2022-11-27T09:14:36.640Z,5.57
2022-11-27T09:17:03.700Z,5.65
2022-11-27T09:19:30.510Z,5.63
2022-11-27T09:21:57.989Z,5.67
2022-11-27T09:24:25.338Z,5.74
2022-11-27T09:26:52.221Z,5.66
2022-11-27T09:29:19.030Z,5.72
2022-11-27T09:31:46.324Z,5.76
2022-11-27T09:34:13.243Z,5.77
2022-11-27T09:36:40.037Z,5.75
2022-11-27T09:39:08.567Z,5.79
2022-11-27T09:41:42.419Z,5.67
2022-11-27T09:44:39.886Z,5.78
2022-11-27T09:47:41.585Z,5.82
2022-11-27T09:50:26.542Z,5.85
2022-11-27T09:53:38.876Z,5.88
2022-11-27T09:56:09.974Z,5.91
2022-11-27T09:58:42.408Z,5.94
2022-11-27T10:01:14.725Z,5.95
2022-11-27T10:03:43.051Z,5.81
2022-11-27T10:06:28.748Z,5.95
2022-11-27T10:09:01.581Z,5.97
2022-11-27T10:11:31.527Z,5.98
2022-11-27T10:14:51.137Z,5.95
2022-11-27T10:17:22.750Z,5.98
2022-11-27T10:20:13.910Z,6.03
2022-11-27T10:23:12.583Z,5.95
2022-11-27T10:25:39.311Z,5.76
2022-11-27T10:28:12.435Z,5.65
2022-11-27T10:30:55.683Z,5.79
2022-11-27T10:33:27.725Z,5.73
2022-11-27T10:35:54.684Z,5.69
2022-11-27T10:38:24.238Z,5.73
2022-11-27T10:40:53.924Z,5.76
2022-11-27T10:43:22.988Z,5.84
2022-11-27T10:46:14.579Z,5.72
2022-11-27T10:48:41.911Z,5.86
2022-11-27T10:51:14.642Z,5.89
2022-11-27T10:53:43.045Z,5.76
2022-11-27T10:56:15.134Z,5.89
2022-11-27T10:58:56.580Z,5.98
2022-11-27T11:01:25.762Z,6.00
2022-11-27T11:04:24.278Z,6.02
2022-11-27T11:06:52.855Z,6.13
2022-11-27T11:09:28.834Z,6.25
2022-11-27T11:12:18.865Z,6.30
2022-11-27T11:14:51.855Z,6.34
2022-11-27T11:17:18.888Z,6.28
2022-11-27T11:19:46.070Z,6.42
2022-11-27T11:22:15.226Z,6.42
2022-11-27T11:24:47.100Z,6.49
2022-11-27T11:27:22.153Z,6.28
2022-11-27T11:29:51.868Z,6.38
2022-11-27T11:32:28.640Z,6.50
2022-11-27T11:35:01.084Z,6.43
2022-11-27T11:37:38.963Z,6.43
2022-11-27T11:40:16.537Z,6.45
2022-11-27T11:43:04.282Z,6.53
2022-11-27T11:45:33.133Z,6.58
2022-11-27T11:48:19.426Z,6.48
2022-11-27T11:50:54.874Z,6.50
2022-11-27T11:53:36.259Z,6.59
2022-11-27T11:56:09.072Z,6.62
2022-11-27T11:58:53.861Z,6.60
2022-11-27T12:01:38.831Z,6.49
2022-11-27T12:04:25.244Z,6.52
2022-11-27T12:07:40.137Z,6.56
2022-11-27T12:10:39.561Z,6.53
2022-11-27T12:13:27.799Z,6.55
2022-11-27T12:16:07.639Z,6.63
2022-11-27T12:18:40.493Z,6.68
2022-11-27T12:21:17.667Z,6.73
2022-11-27T12:24:17.925Z,6.77
2022-11-27T12:26:55.372Z,6.82
2022-11-27T12:29:29.720Z,6.84
2022-11-27T12:32:27.551Z,6.87
2022-11-27T12:35:42.578Z,6.80
2022-11-27T12:38:34.699Z,6.61
2022-11-27T12:41:46.129Z,6.68
2022-11-27T12:44:31.140Z,6.71
2022-11-27T12:47:12.101Z,6.70
2022-11-27T12:49:43.938Z,6.70
2022-11-27T12:52:12.980Z,6.71
2022-11-27T12:54:55.067Z,6.71
2022-11-27T12:57:39.736Z,6.66
2022-11-27T13:00:14.405Z,6.59
2022-11-27T13:02:46.704Z,6.59
2022-11-27T13:05:20.336Z,6.53
2022-11-27T13:07:56.783Z,6.44
2022-11-27T13:10:52.833Z,6.47
2022-11-27T13:13:29.075Z,6.34
2022-11-27T13:16:02.350Z,6.30
2022-11-27T13:18:52.267Z,6.29
2022-11-27T13:21:23.692Z,6.28
2022-11-27T13:23:51.583Z,6.26
2022-11-27T13:26:30.007Z,6.27
2022-11-27T13:29:03.203Z,6.25
2022-11-27T13:31:37.493Z,6.24
2022-11-27T13:34:07.211Z,6.22
2022-11-27T13:36:37.727Z,6.18
2022-11-27T13:39:04.862Z,6.12
2022-11-27T13:41:35.193Z,6.13
2022-11-27T13:44:04.207Z,6.14
2022-11-27T13:46:44.543Z,6.05
2022-11-27T13:49:26.386Z,6.11
2022-11-27T13:52:12.263Z,6.07
2022-11-27T13:54:39.780Z,5.99
2022-11-27T13:57:17.734Z,6.04
2022-11-27T14:00:03.284Z,6.01
2022-11-27T14:02:59.311Z,6.06
2022-11-27T14:05:56.091Z,6.06
2022-11-27T14:08:34.850Z,6.08
2022-11-27T14:11:13.947Z,6.04
2022-11-27T14:13:51.644Z,6.05
2022-11-27T14:16:32.024Z,6.02
2022-11-27T14:19:00.977Z,6.04
2022-11-27T14:21:41.694Z,6.07
2022-11-27T14:24:33.375Z,6.09
2022-11-27T14:27:00.459Z,6.09
2022-11-27T14:29:31.312Z,6.11
2022-11-27T14:32:02.461Z,6.10
2022-11-27T14:34:30.604Z,6.13
2022-11-27T14:36:58.103Z,6.14
2022-11-27T14:39:29.366Z,6.16
2022-11-27T14:42:00.899Z,6.13
2022-11-27T14:44:28.416Z,6.13
2022-11-27T14:46:57.295Z,6.11
2022-11-27T14:49:25.942Z,6.11
2022-11-27T14:51:53.664Z,6.08
2022-11-27T14:54:25.519Z,6.06
2022-11-27T14:56:53.147Z,6.02
2022-11-27T14:59:23.024Z,6.00
2022-11-27T15:02:12.414Z,5.91
2022-11-27T15:04:44.538Z,5.92
2022-11-27T15:07:23.488Z,5.92
2022-11-27T15:09:57.002Z,5.93
2022-11-27T15:12:28.050Z,5.91
2022-11-27T15:15:39.563Z,5.89
2022-11-27T15:18:07.894Z,5.84
2022-11-27T15:20:44.738Z,5.89
2022-11-27T15:23:16.598Z,5.87
2022-11-27T15:25:46.556Z,5.87
2022-11-27T15:28:25.086Z,5.86
2022-11-27T15:30:52.088Z,5.79
2022-11-27T15:33:29.547Z,5.83
2022-11-27T15:36:15.942Z,5.82
2022-11-27T15:38:43.653Z,5.81
2022-11-27T15:41:27.009Z,5.80
2022-11-27T15:43:54.486Z,5.79
2022-11-27T15:46:32.584Z,5.78
2022-11-27T15:48:59.442Z,5.77
2022-11-27T15:51:26.588Z,5.77
2022-11-27T15:53:53.835Z,5.77
2022-11-27T15:56:21.131Z,5.75
2022-11-27T15:58:47.955Z,5.75
2022-11-27T16:01:15.002Z,5.72
2022-11-27T16:03:42.200Z,5.74
2022-11-27T16:06:09.192Z,5.75
2022-11-27T16:08:36.619Z,5.72
2022-11-27T16:11:06.915Z,5.75
2022-11-27T16:13:33.999Z,5.73
2022-11-27T16:16:02.828Z,5.73
2022-11-27T16:18:32.280Z,5.72
2022-11-27T16:21:06.420Z,5.73
2022-11-27T16:23:33.826Z,5.70
2022-11-27T16:26:00.843Z,5.69
2022-11-27T16:28:29.129Z,5.69
2022-11-27T16:30:57.586Z,5.66
2022-11-27T16:33:32.819Z,5.65
2022-11-27T16:36:11.999Z,5.62
2022-11-27T16:38:39.969Z,5.62
2022-11-27T16:41:10.591Z,5.60
2022-11-27T16:43:39.532Z,5.60
2022-11-27T16:46:19.752Z,5.62
2022-11-27T16:48:48.072Z,5.58
2022-11-27T16:51:29.413Z,5.60
2022-11-27T16:53:57.788Z,5.65
2022-11-27T16:56:26.627Z,5.65
2022-11-27T16:58:59.361Z,5.63
2022-11-27T17:01:36.383Z,5.65
2022-11-27T17:04:09.115Z,5.65
2022-11-27T17:06:38.008Z,5.60
2022-11-27T17:09:06.857Z,5.55
2022-11-27T17:11:35.852Z,5.50
2022-11-27T17:14:06.378Z,5.53
2022-11-27T17:16:34.009Z,5.55
2022-11-27T17:19:01.154Z,5.54
2022-11-27T17:21:33.821Z,5.50
2022-11-27T17:24:02.524Z,5.52
2022-11-27T17:26:31.893Z,5.48
2022-11-27T17:29:00.039Z,5.51
2022-11-27T17:31:32.591Z,5.51
2022-11-27T17:34:00.028Z,5.52
2022-11-27T17:36:31.413Z,5.52
2022-11-27T17:39:05.265Z,5.53
2022-11-27T17:41:33.541Z,5.39
2022-11-27T17:44:03.640Z,5.42
2022-11-27T17:46:31.083Z,5.40
2022-11-27T17:49:00.695Z,5.40
2022-11-27T17:51:30.383Z,5.43
2022-11-27T17:54:01.371Z,5.46
2022-11-27T17:56:28.986Z,5.44
2022-11-27T17:58:56.094Z,5.45
2022-11-27T18:01:25.023Z,5.43
2022-11-27T18:03:55.317Z,5.37
2022-11-27T18:06:23.098Z,5.30
2022-11-27T18:08:50.535Z,5.28
2022-11-27T18:11:20.923Z,5.25
2022-11-27T18:13:48.307Z,5.28
2022-11-27T18:16:18.406Z,5.17
2022-11-27T18:18:46.138Z,5.22
2022-11-27T18:21:18.521Z,5.25
2022-11-27T18:24:21.285Z,5.22
2022-11-27T18:29:22.718Z,5.12
2022-11-27T18:31:51.049Z,5.14
2022-11-27T18:34:18.334Z,5.04
2022-11-27T18:36:45.983Z,5.05
2022-11-27T18:39:15.131Z,5.06
2022-11-27T18:41:42.327Z,5.02
2022-11-27T18:44:09.454Z,5.01
2022-11-27T18:46:36.968Z,5.00
2022-11-27T18:49:04.288Z,4.91
2022-11-27T18:51:31.475Z,4.86
2022-11-27T18:53:58.379Z,4.80
2022-11-27T18:56:30.599Z,4.82
2022-11-27T18:59:01.451Z,4.77
2022-11-27T19:01:35.567Z,4.77
2022-11-27T19:04:06.474Z,4.84
2022-11-27T19:06:35.493Z,4.76
2022-11-27T19:09:04.278Z,4.81
2022-11-27T19:11:32.697Z,4.80
2022-11-27T19:14:00.112Z,4.81
2022-11-27T19:16:31.172Z,4.87
2022-11-27T19:18:59.187Z,4.92
2022-11-27T19:21:28.159Z,4.95
2022-11-27T19:23:55.548Z,4.97
2022-11-27T19:26:24.904Z,4.99
2022-11-27T19:28:55.019Z,5.01
2022-11-27T19:31:22.689Z,5.00
2022-11-27T19:33:54.576Z,5.06
2022-11-27T19:36:22.813Z,5.09
2022-11-27T19:38:55.041Z,5.12
2022-11-27T19:41:22.075Z,5.14
2022-11-27T19:43:49.194Z,5.18
2022-11-27T19:46:21.662Z,5.21
2022-11-27T19:48:48.981Z,5.21
2022-11-27T19:51:16.967Z,5.12
2022-11-27T19:53:45.840Z,5.17
2022-11-27T19:56:12.968Z,5.18
2022-11-27T19:58:41.110Z,5.16
2022-11-27T20:01:10.627Z,5.15
2022-11-27T20:03:38.066Z,5.18
2022-11-27T20:06:16.692Z,5.13
2022-11-27T20:08:45.102Z,5.11
2022-11-27T20:11:14.771Z,5.04
2022-11-27T20:13:41.881Z,5.04
2022-11-27T20:16:10.270Z,4.92
2022-11-27T20:18:37.895Z,4.95
2022-11-27T20:21:11.322Z,4.90
2022-11-27T20:23:39.252Z,4.98
2022-11-27T20:26:08.366Z,5.03
2022-11-27T20:28:36.351Z,5.03
2022-11-27T20:31:04.257Z,4.88
2022-11-27T20:33:32.512Z,4.89
2022-11-27T20:36:00.421Z,4.93
2022-11-27T20:38:28.020Z,4.93
2022-11-27T20:40:55.288Z,4.96
2022-11-27T20:43:22.946Z,4.89
2022-11-27T20:45:52.107Z,4.82
2022-11-27T20:48:19.089Z,4.86
2022-11-27T20:50:51.289Z,4.86
2022-11-27T20:53:19.735Z,4.83
2022-11-27T20:55:47.057Z,4.84
2022-11-27T20:58:14.307Z,4.77
2022-11-27T21:00:41.600Z,4.79
2022-11-27T21:03:08.751Z,4.80
2022-11-27T21:05:35.779Z,4.78
2022-11-27T21:08:02.763Z,4.83
2022-11-27T21:10:29.878Z,4.79
2022-11-27T21:12:56.931Z,4.64
2022-11-27T21:15:23.808Z,4.71
2022-11-27T21:17:51.071Z,4.73
2022-11-27T21:20:18.687Z,4.77
2022-11-27T21:22:45.556Z,4.77
2022-11-27T21:25:13.345Z,4.78
2022-11-27T21:27:40.225Z,4.72
2022-11-27T21:30:07.715Z,4.72
2022-11-27T21:32:34.891Z,4.76
2022-11-27T21:35:01.853Z,4.75
2022-11-27T21:37:29.711Z,4.71
2022-11-27T21:39:57.891Z,4.74
2022-11-27T21:42:25.872Z,4.79
2022-11-27T21:44:52.710Z,4.76
2022-11-27T21:47:19.658Z,4.76
2022-11-27T21:49:49.911Z,4.76
2022-11-27T21:52:17.145Z,4.70
2022-11-27T21:54:44.318Z,4.76
2022-11-27T21:57:11.324Z,4.68
2022-11-27T21:59:38.485Z,4.77
2022-11-27T22:02:05.350Z,4.81
2022-11-27T22:04:32.163Z,4.79
2022-11-27T22:06:59.069Z,4.83
2022-11-27T22:09:26.678Z,4.81
2022-11-27T22:11:53.530Z,4.86
2022-11-27T22:14:20.336Z,4.77
2022-11-27T22:16:47.414Z,4.71
2022-11-27T22:19:14.870Z,4.73
2022-11-27T22:21:41.770Z,4.73
2022-11-27T22:24:14.863Z,4.65
2022-11-27T22:26:45.004Z,4.74
2022-11-27T22:29:11.890Z,4.78
2022-11-27T22:31:38.775Z,4.72
2022-11-27T22:34:05.659Z,4.74
2022-11-27T22:36:33.826Z,4.76
2022-11-27T22:39:04.774Z,4.62
2022-11-27T22:41:35.286Z,4.62
2022-11-27T22:44:08.576Z,4.62
2022-11-27T22:46:36.181Z,4.62
2022-11-27T22:49:05.198Z,4.62
2022-11-27T22:51:34.414Z,4.64
2022-11-27T22:54:02.588Z,4.49
2022-11-27T22:56:29.493Z,4.54
2022-11-27T22:59:24.551Z,4.52
2022-11-27T23:01:48.519Z,4.48
2022-11-27T23:04:15.536Z,4.49
2022-11-27T23:06:42.529Z,4.44
2022-11-27T23:09:09.578Z,4.47
2022-11-27T23:11:36.939Z,4.48
2022-11-27T23:14:03.800Z,4.49
2022-11-27T23:16:30.835Z,4.48
2022-11-27T23:18:57.752Z,4.45
2022-11-27T23:21:25.145Z,4.43
2022-11-27T23:23:51.996Z,4.45
2022-11-27T23:26:22.645Z,4.44
2022-11-27T23:28:51.487Z,4.48
2022-11-27T23:31:29.960Z,4.47
2022-11-27T23:33:58.726Z,4.34
2022-11-27T23:36:25.878Z,4.38
2022-11-27T23:38:52.935Z,4.30
2022-11-27T23:41:25.091Z,4.26
2022-11-27T23:43:53.234Z,4.36
2022-11-27T23:46:22.014Z,4.40
2022-11-27T23:48:49.363Z,4.31
2022-11-27T23:51:21.726Z,4.31
2022-11-27T23:53:50.329Z,4.39
2022-11-27T23:56:23.211Z,4.39
2022-11-27T23:58:50.047Z,4.39
